Time;durP1;ratioP1;P1;durP2;ratioP2;P2;SDS_P1;SDS_P2;PMS_P1;PMS_P2;Temp;Humidity;BMP_temperature;BMP_pressure;BME280_temperature;BME280_humidity;BME280_pressure;Samples;Min_cycle;Max_cycle;Signal;HPM_P1;HPM_P2
2022/05/03 00:02:39;;;;;;;10.02;6.20;;;;;;;10.83;60.12;101877.44;5043480;28;20151;-86
2022/05/03 00:05:09;;;;;;;8.85;6.07;;;;;;;10.72;60.71;101877.03;5004696;28;20029;-87
2022/05/03 00:07:47;;;;;;;9.98;6.07;;;;;;;10.69;61.21;101882.13;5055539;28;20090;-87
2022/05/03 00:10:15;;;;;;;10.35;6.07;;;;;;;10.66;60.88;101876.78;5043478;28;20040;-87
2022/05/03 00:12:41;;;;;;;9.52;6.38;;;;;;;10.66;60.99;101876.78;5042582;28;20084;-86
2022/05/03 00:15:08;;;;;;;12.05;6.57;;;;;;;10.55;61.36;101881.56;5042694;28;20165;-87
2022/05/03 00:17:34;;;;;;;9.40;6.07;;;;;;;10.50;60.97;101871.78;5041465;28;20116;-81
2022/05/03 00:20:00;;;;;;;9.95;6.22;;;;;;;10.47;61.27;101874.25;5043090;28;20037;-81
2022/05/03 00:22:26;;;;;;;7.95;5.80;;;;;;;10.47;61.20;101869.97;5043119;28;20029;-81
2022/05/03 00:24:54;;;;;;;9.65;6.32;;;;;;;10.41;61.22;101859.25;5042528;28;20095;-81
2022/05/03 00:27:24;;;;;;;8.65;6.32;;;;;;;10.40;61.25;101867.94;5042458;28;20037;-81
2022/05/03 00:29:51;;;;;;;8.95;6.10;;;;;;;10.30;61.36;101870.91;5042448;28;20037;-81
2022/05/03 00:32:17;;;;;;;10.95;6.40;;;;;;;10.27;61.66;101866.50;5032475;28;20331;-80
2022/05/03 00:34:43;;;;;;;10.13;5.80;;;;;;;10.25;61.58;101869.03;5057139;28;20048;-80
2022/05/03 00:37:08;;;;;;;8.63;5.72;;;;;;;10.18;61.55;101858.28;5035229;28;20041;-80
2022/05/03 00:39:34;;;;;;;9.57;6.18;;;;;;;10.12;61.03;101856.31;5033725;28;20033;-81
2022/05/03 00:42:06;;;;;;;8.60;5.70;;;;;;;10.09;61.81;101859.69;5040816;28;20021;-81
2022/05/03 00:44:55;;;;;;;8.77;5.78;;;;;;;10.07;61.71;101853.53;5042937;28;20029;-81
2022/05/03 00:47:47;;;;;;;10.57;6.15;;;;;;;10.02;61.54;101862.88;5057033;28;20032;-81
2022/05/03 00:50:32;;;;;;;9.07;6.45;;;;;;;10.03;61.47;101861.16;5036426;28;20041;-81
2022/05/03 00:53:05;;;;;;;9.90;6.05;;;;;;;9.98;61.36;101867.84;5040454;28;20018;-81
2022/05/03 00:55:55;;;;;;;9.07;6.50;;;;;;;9.94;61.24;101865.97;5049893;28;20207;-81
2022/05/03 00:58:38;;;;;;;8.95;6.28;;;;;;;9.87;61.60;101873.50;5054208;28;20041;-81
2022/05/03 01:01:05;;;;;;;9.00;6.13;;;;;;;9.80;62.42;101866.25;5037001;28;20046;-80
2022/05/03 01:04:09;;;;;;;9.93;6.03;;;;;;;9.80;61.71;101868.84;5032614;28;20021;-80
2022/05/03 01:06:55;;;;;;;9.68;6.05;;;;;;;9.76;61.85;101866.94;5034199;28;20037;-80
2022/05/03 01:09:30;;;;;;;8.43;6.03;;;;;;;9.67;62.50;101874.34;5039450;28;20037;-80
2022/05/03 01:12:15;;;;;;;9.45;5.60;;;;;;;9.61;61.97;101867.16;5041591;28;20032;-80
2022/05/03 01:15:17;;;;;;;9.90;5.97;;;;;;;9.60;61.90;101869.69;5041731;28;20093;-80
2022/05/03 01:17:45;;;;;;;8.77;5.78;;;;;;;9.49;62.10;101867.53;5041643;28;20033;-80
2022/05/03 01:20:25;;;;;;;11.43;6.72;;;;;;;9.45;63.16;101862.13;5042326;28;20081;-80
2022/05/03 01:23:10;;;;;;;9.30;6.18;;;;;;;9.40;62.84;101859.31;5056867;28;20060;-80
2022/05/03 01:26:04;;;;;;;8.63;5.93;;;;;;;9.43;63.14;101858.53;5028744;28;20319;-80
2022/05/03 01:28:30;;;;;;;9.30;6.22;;;;;;;9.33;63.93;101859.88;5041763;28;20045;-81
2022/05/03 01:31:05;;;;;;;10.15;6.40;;;;;;;9.29;63.43;101848.41;5040935;28;20076;-81
2022/05/03 01:33:42;;;;;;;8.93;6.05;;;;;;;9.25;63.80;101862.09;5056869;28;20025;-81
2022/05/03 01:36:09;;;;;;;9.25;6.55;;;;;;;9.20;64.02;101861.88;5042226;28;20040;-81
2022/05/03 01:38:41;;;;;;;9.20;6.28;;;;;;;9.18;63.94;101855.75;5041287;28;20053;-81
2022/05/03 01:41:37;;;;;;;11.38;6.32;;;;;;;9.15;64.15;101858.22;5042075;28;20303;-81
2022/05/03 01:44:11;;;;;;;10.82;6.53;;;;;;;9.17;63.44;101858.28;5039985;28;20088;-80
2022/05/03 01:46:37;;;;;;;9.05;6.03;;;;;;;9.13;63.15;101858.94;5060551;28;20032;-80
2022/05/03 01:52:31;;;;;;;10.00;6.40;;;;;;;9.16;63.32;101857.38;5046284;28;20033;-80
2022/05/03 01:55:09;;;;;;;10.60;6.50;;;;;;;9.08;63.86;101860.44;5061073;28;20039;-80
2022/05/03 01:57:59;;;;;;;10.10;6.03;;;;;;;9.02;64.34;101859.34;5045578;28;20049;-80
2022/05/03 02:00:24;;;;;;;9.88;6.15;;;;;;;8.99;64.83;101858.31;5046240;28;20033;-80
2022/05/03 02:03:19;;;;;;;9.52;6.10;;;;;;;8.95;64.95;101852.09;5044781;28;20588;-80
2022/05/03 02:05:53;;;;;;;10.07;6.00;;;;;;;8.93;64.78;101847.63;5045867;28;20187;-80
2022/05/03 02:08:22;;;;;;;9.10;6.18;;;;;;;8.88;64.24;101856.09;5045305;28;20065;-80
2022/05/03 02:11:40;;;;;;;9.52;6.43;;;;;;;8.94;63.48;101854.63;5060758;28;20053;-80
2022/05/03 02:17:18;;;;;;;9.05;6.35;;;;;;;8.81;64.00;101850.56;5045124;28;20110;-80
2022/05/03 02:20:12;;;;;;;9.32;6.00;;;;;;;8.79;64.02;101846.97;5045741;28;20066;-80
2022/05/03 02:22:50;;;;;;;9.25;5.70;;;;;;;8.78;63.87;101847.81;5043077;28;20037;-80
2022/05/03 02:25:43;;;;;;;9.27;6.18;;;;;;;8.68;63.74;101849.06;5044785;28;20095;-80
2022/05/03 02:28:17;;;;;;;10.23;5.72;;;;;;;8.65;63.11;101848.94;5044717;28;20040;-81
2022/05/03 02:30:45;;;;;;;8.60;6.18;;;;;;;8.52;63.20;101843.13;5045108;28;20044;-81
2022/05/03 02:33:27;;;;;;;8.50;5.68;;;;;;;8.49;63.28;101855.97;5044645;28;20188;-80
2022/05/03 02:35:58;;;;;;;9.68;6.38;;;;;;;8.38;63.72;101846.75;5040406;28;20224;-80
2022/05/03 02:38:36;;;;;;;8.90;5.85;;;;;;;8.38;63.68;101846.75;5044620;28;20029;-80
2022/05/03 02:41:03;;;;;;;8.98;6.50;;;;;;;8.34;64.43;101844.81;5042976;28;20048;-80
2022/05/03 02:43:30;;;;;;;8.85;6.03;;;;;;;8.32;64.72;101839.53;5037892;28;20038;-81
2022/05/03 02:46:11;;;;;;;9.20;6.05;;;;;;;8.31;64.68;101844.66;5042020;28;20033;-81
2022/05/03 02:48:55;;;;;;;9.35;6.43;;;;;;;8.28;65.00;101845.38;5059374;28;20096;-81
2022/05/03 02:51:26;;;;;;;8.90;5.80;;;;;;;8.25;65.06;101847.84;5043371;28;20079;-81
2022/05/03 02:53:58;;;;;;;9.38;6.25;;;;;;;8.22;64.85;101844.22;5040965;28;20168;-81
2022/05/03 02:56:34;;;;;;;8.25;5.95;;;;;;;8.19;63.92;101853.63;5042545;28;20085;-81
2022/05/03 02:59:18;;;;;;;9.50;6.28;;;;;;;8.18;63.92;101846.66;5039911;28;20039;-81
2022/05/03 03:02:00;;;;;;;8.55;5.65;;;;;;;8.15;63.93;101859.50;5034178;28;20063;-81
2022/05/03 03:04:44;;;;;;;9.32;6.07;;;;;;;8.13;64.26;101855.91;5056697;28;20040;-81
2022/05/03 03:07:16;;;;;;;8.55;5.32;;;;;;;8.09;64.60;101858.28;5040877;28;20021;-81
2022/05/03 03:10:03;;;;;;;8.75;5.57;;;;;;;8.14;64.36;101855.13;5042391;28;20025;-80
2022/05/03 03:12:52;;;;;;;8.73;5.50;;;;;;;8.15;64.11;101841.31;5042354;28;20295;-80
2022/05/03 03:15:23;;;;;;;9.38;5.88;;;;;;;8.12;64.43;101845.47;5037186;28;20017;-80
2022/05/03 03:17:51;;;;;;;8.38;5.60;;;;;;;8.05;64.74;101852.03;5039842;28;20040;-80
2022/05/03 03:20:23;;;;;;;9.25;5.88;;;;;;;8.03;65.41;101845.91;5033192;28;20037;-80
2022/05/03 03:22:49;;;;;;;11.15;6.20;;;;;;;8.03;64.94;101858.88;5036612;28;20268;-80
2022/05/03 03:25:16;;;;;;;10.48;5.60;;;;;;;8.00;64.89;101851.81;5043616;28;20045;-80
2022/05/03 03:27:43;;;;;;;9.15;6.07;;;;;;;8.00;65.19;101851.81;5031787;28;20037;-80
2022/05/03 03:30:10;;;;;;;8.63;5.20;;;;;;;8.01;65.67;101855.31;5043522;28;20047;-80
2022/05/03 03:32:41;;;;;;;9.00;5.95;;;;;;;8.03;64.91;101853.69;5043677;28;20068;-80
2022/05/03 03:35:08;;;;;;;8.00;5.20;;;;;;;7.97;64.95;101856.84;5042957;28;20024;-80
2022/05/03 03:37:34;;;;;;;8.60;5.65;;;;;;;7.96;64.88;101854.19;5043461;28;20072;-80
2022/05/03 03:40:01;;;;;;;8.30;5.63;;;;;;;7.92;65.01;101854.84;5042563;28;20275;-80
2022/05/03 03:42:28;;;;;;;9.80;5.60;;;;;;;7.87;65.12;101845.94;5041325;28;20045;-80
2022/05/03 03:44:58;;;;;;;8.98;5.80;;;;;;;7.85;65.23;101838.09;5049741;28;20013;-80
2022/05/03 03:47:24;;;;;;;8.10;5.53;;;;;;;7.83;64.89;101839.69;5041683;28;20040;-80
2022/05/03 03:49:50;;;;;;;9.32;5.80;;;;;;;7.81;65.08;101842.22;5058898;28;20022;-80
2022/05/03 03:52:16;;;;;;;9.75;5.60;;;;;;;7.78;64.77;101844.66;5040163;28;20140;-80
2022/05/03 03:54:42;;;;;;;8.35;5.32;;;;;;;7.79;64.71;101848.13;5032896;28;20029;-80
2022/05/03 03:57:08;;;;;;;8.45;5.50;;;;;;;7.74;64.78;101850.50;5039720;28;20025;-80
2022/05/03 03:59:35;;;;;;;8.40;5.57;;;;;;;7.75;65.28;101847.09;5038584;28;20076;-80
2022/05/03 04:02:01;;;;;;;9.90;6.03;;;;;;;7.80;65.77;101839.53;5029424;28;20030;-80
2022/05/03 04:04:31;;;;;;;9.80;5.88;;;;;;;7.76;65.30;101846.28;5047400;28;20036;-80
2022/05/03 04:06:57;;;;;;;7.88;5.35;;;;;;;7.73;65.31;101846.09;5040205;28;20024;-80
2022/05/03 04:09:22;;;;;;;11.40;6.15;;;;;;;7.69;65.95;101844.19;5030058;28;20029;-80
2022/05/03 04:11:48;;;;;;;9.20;5.97;;;;;;;7.69;66.37;101844.19;5043216;28;20336;-80
2022/05/03 04:14:14;;;;;;;7.80;5.60;;;;;;;7.67;66.18;101843.22;5043065;28;20063;-80
2022/05/03 04:16:40;;;;;;;9.38;5.70;;;;;;;7.62;66.29;101844.69;5058902;28;20026;-80
2022/05/03 04:19:06;;;;;;;9.90;6.13;;;;;;;7.63;66.49;101846.44;5042070;28;20037;-80
2022/05/03 04:21:32;;;;;;;9.25;5.70;;;;;;;7.58;66.19;101851.41;5042143;28;20116;-80
2022/05/03 04:23:57;;;;;;;9.65;5.78;;;;;;;7.53;66.94;101852.88;5043359;28;20249;-80
2022/05/03 04:26:23;;;;;;;9.95;6.00;;;;;;;7.52;66.57;101852.78;5040938;28;20017;-80
2022/05/03 04:28:48;;;;;;;8.85;6.15;;;;;;;7.50;66.71;101847.50;5032400;28;20032;-80
2022/05/03 04:31:13;;;;;;;8.10;5.57;;;;;;;7.52;66.42;101845.00;5042018;28;20040;-80
2022/05/03 04:33:39;;;;;;;8.88;5.82;;;;;;;7.50;66.62;101852.69;5042735;28;20287;-80
2022/05/03 04:36:04;;;;;;;10.07;6.30;;;;;;;7.50;66.67;101852.69;5043126;28;20088;-80
2022/05/03 04:38:30;;;;;;;9.68;6.40;;;;;;;7.53;67.66;101855.47;5042359;28;20021;-80
2022/05/03 04:40:59;;;;;;;10.30;6.32;;;;;;;7.51;68.23;101859.69;5038574;28;20045;-80
2022/05/03 04:43:24;;;;;;;10.75;6.05;;;;;;;7.53;67.98;101855.47;5040744;28;20033;-80
2022/05/03 04:45:51;;;;;;;11.43;6.18;;;;;;;7.55;67.65;101861.63;5042299;28;20260;-80
2022/05/03 04:48:16;;;;;;;9.20;6.07;;;;;;;7.57;68.54;101860.00;5043187;28;20022;-80
2022/05/03 04:50:41;;;;;;;10.90;5.88;;;;;;;7.58;67.89;101859.19;5057831;28;20025;-80
2022/05/03 04:53:07;;;;;;;9.40;6.35;;;;;;;7.59;68.11;101865.25;5042750;28;20322;-80
2022/05/03 04:55:32;;;;;;;9.63;6.32;;;;;;;7.56;68.03;101859.91;5042094;28;20042;-80
2022/05/03 04:57:58;;;;;;;8.93;6.38;;;;;;;7.58;67.75;101866.09;5042480;28;20048;-80
2022/05/03 05:00:23;;;;;;;10.75;6.90;;;;;;;7.58;68.17;101864.38;5042416;28;20044;-80
2022/05/03 05:02:48;;;;;;;9.23;6.20;;;;;;;7.60;67.67;101869.63;5042821;28;20101;-80
2022/05/03 05:05:14;;;;;;;10.77;7.30;;;;;;;7.62;68.40;101868.03;5041771;28;20025;-80
2022/05/03 05:07:39;;;;;;;10.60;6.05;;;;;;;7.65;68.56;101870.78;5034325;28;20407;-80
2022/05/03 05:10:23;;;;;;;11.25;6.47;;;;;;;7.67;68.12;101874.34;5041940;28;20037;-80
2022/05/03 05:12:49;;;;;;;9.95;6.18;;;;;;;7.70;68.01;101873.63;5035419;28;20064;-80
2022/05/03 05:15:14;;;;;;;10.45;6.70;;;;;;;7.70;68.56;101884.00;5042527;28;20038;-80
2022/05/03 05:17:40;;;;;;;11.40;6.90;;;;;;;7.71;68.56;101876.28;5041791;28;20103;-80
2022/05/03 05:20:05;;;;;;;10.73;6.75;;;;;;;7.76;68.96;101873.91;5041376;28;20205;-80
2022/05/03 05:22:31;;;;;;;10.93;7.47;;;;;;;7.77;68.66;101875.72;5042030;28;20021;-80
2022/05/03 05:24:56;;;;;;;9.95;6.65;;;;;;;7.81;68.83;101880.25;5042284;28;20291;-80
2022/05/03 05:27:21;;;;;;;10.73;7.47;;;;;;;7.83;68.83;101873.44;5041618;28;20207;-80
2022/05/03 05:29:47;;;;;;;10.98;7.43;;;;;;;7.88;68.99;101884.03;5057755;28;20187;-80
2022/05/03 05:32:12;;;;;;;11.18;7.40;;;;;;;7.88;69.22;101887.53;5040209;28;20071;-80
2022/05/03 05:34:37;;;;;;;11.02;7.53;;;;;;;7.91;69.04;101890.28;5042572;28;20032;-80
2022/05/03 05:37:03;;;;;;;10.70;7.30;;;;;;;7.92;69.28;101892.09;5041710;28;20192;-80
2022/05/03 05:39:28;;;;;;;11.50;7.80;;;;;;;7.96;69.60;101899.19;5041949;28;20048;-80
2022/05/03 05:41:59;;;;;;;11.80;7.35;;;;;;;7.98;69.83;101900.16;5050513;28;20077;-80
2022/05/03 05:44:30;;;;;;;12.02;7.38;;;;;;;8.04;69.56;101899.59;5041228;28;20105;-80
2022/05/03 05:46:56;;;;;;;13.30;7.38;;;;;;;8.07;69.57;101906.66;5041438;28;20036;-80
2022/05/03 05:49:22;;;;;;;13.82;7.72;;;;;;;8.10;69.63;101907.69;5042225;28;20025;-80
2022/05/03 05:51:47;;;;;;;13.48;7.70;;;;;;;8.15;69.56;101900.13;5039772;28;20090;-80
2022/05/03 05:54:13;;;;;;;10.35;6.93;;;;;;;8.21;69.74;101905.63;5035935;28;20061;-80
2022/05/03 05:56:42;;;;;;;12.15;7.85;;;;;;;8.26;70.01;101903.28;5040581;28;20029;-80
2022/05/03 05:59:07;;;;;;;11.05;7.63;;;;;;;8.37;69.53;101907.28;5042056;28;20040;-80
2022/05/03 06:01:38;;;;;;;12.48;8.50;;;;;;;8.41;69.92;101904.03;5041235;28;20029;-80
2022/05/03 06:04:04;;;;;;;12.45;8.32;;;;;;;8.49;69.12;101896.66;5040827;28;20033;-80
2022/05/03 06:06:29;;;;;;;13.43;7.82;;;;;;;8.58;69.11;101897.09;5040525;28;20149;-80
2022/05/03 06:08:54;;;;;;;11.90;8.20;;;;;;;8.67;69.41;101902.72;5041868;28;20044;-80
2022/05/03 06:11:19;;;;;;;15.23;8.95;;;;;;;8.96;68.93;101904.94;5041290;28;20049;-80
2022/05/03 06:13:45;;;;;;;12.48;7.97;;;;;;;9.33;67.29;101906.69;5042117;28;20033;-80
2022/05/03 06:16:11;;;;;;;11.82;8.20;;;;;;;9.75;66.30;101901.63;5041260;28;20276;-80
2022/05/03 06:18:37;;;;;;;11.60;7.93;;;;;;;10.13;64.61;101907.56;5040591;28;20044;-80
2022/05/03 06:21:05;;;;;;;13.02;8.23;;;;;;;10.58;63.62;101906.84;5041139;28;20037;-80
2022/05/03 06:23:31;;;;;;;12.07;7.72;;;;;;;10.90;62.09;101902.91;5040632;28;20029;-80
2022/05/03 06:25:58;;;;;;;13.35;7.43;;;;;;;11.17;61.74;101906.56;5041123;28;20025;-80
2022/05/03 06:28:23;;;;;;;10.93;7.28;;;;;;;11.31;59.89;101905.34;5040907;28;20036;-80
2022/05/03 06:30:48;;;;;;;11.68;7.57;;;;;;;11.38;59.38;101903.88;5035210;28;20037;-80
2022/05/03 06:33:14;;;;;;;11.20;6.88;;;;;;;11.40;58.29;101907.44;5030396;28;20045;-80
2022/05/03 06:35:39;;;;;;;10.13;7.10;;;;;;;11.36;59.31;101909.03;5060783;28;20045;-80
2022/05/03 06:38:04;;;;;;;9.93;7.35;;;;;;;11.34;59.17;101905.47;5043319;28;20076;-80
2022/05/03 06:40:30;;;;;;;10.98;7.25;;;;;;;11.34;58.84;101907.19;5044754;28;20089;-80
2022/05/03 06:42:55;;;;;;;10.57;7.25;;;;;;;11.31;58.83;101898.41;5044329;28;20025;-80
2022/05/03 06:45:20;;;;;;;9.18;6.57;;;;;;;11.30;58.46;101894.03;5044727;28;20191;-80
2022/05/03 06:47:48;;;;;;;10.30;6.63;;;;;;;11.36;59.34;101900.31;5045104;28;20022;-80
2022/05/03 06:50:14;;;;;;;10.57;7.03;;;;;;;11.38;58.59;101901.25;5060127;28;20022;-80
2022/05/03 06:52:39;;;;;;;10.23;6.68;;;;;;;11.36;58.33;101897.72;5044851;28;20026;-80
2022/05/03 06:55:05;;;;;;;10.23;6.45;;;;;;;11.38;57.84;101912.56;5041683;28;20033;-80
2022/05/03 06:57:31;;;;;;;10.57;6.55;;;;;;;11.40;57.64;101908.31;5044677;28;20040;-80
2022/05/03 06:59:58;;;;;;;10.07;6.20;;;;;;;11.46;57.23;101905.03;5044810;28;20077;-80
2022/05/03 07:02:24;;;;;;;9.20;6.00;;;;;;;11.51;56.74;101907.81;5044143;28;20088;-80
2022/05/03 07:04:49;;;;;;;7.82;5.00;;;;;;;11.54;54.43;101911.41;5058332;28;20022;-80
2022/05/03 07:07:15;;;;;;;8.48;4.88;;;;;;;11.58;54.80;101910.69;5044616;28;20187;-80
2022/05/03 07:09:41;;;;;;;9.70;4.90;;;;;;;11.64;53.41;101915.25;5042057;28;20298;-80
2022/05/03 07:12:07;;;;;;;10.07;4.65;;;;;;;11.68;53.67;101914.53;5059251;28;20029;-80
2022/05/03 07:14:33;;;;;;;9.07;5.35;;;;;;;11.74;53.79;101916.50;5040595;28;20109;-80
2022/05/03 07:16:58;;;;;;;9.30;5.25;;;;;;;11.78;52.40;101916.66;5043623;28;20042;-80
2022/05/03 07:22:50;;;;;;;8.50;5.30;;;;;;;11.89;52.64;101921.38;5040205;28;20049;-80
2022/05/03 07:24:56;;;;;;;8.75;5.80;;;;;;;11.96;53.53;101915.56;5044718;28;20108;-80
2022/05/03 07:27:21;;;;;;;7.88;4.95;;;;;;;12.00;51.34;101920.94;5043546;28;20034;-85
2022/05/03 07:29:46;;;;;;;7.45;4.60;;;;;;;12.03;48.04;101919.28;5041937;28;20037;-86
2022/05/03 07:32:12;;;;;;;7.03;4.30;;;;;;;12.10;49.81;101919.53;5042513;28;20165;-87
2022/05/03 07:34:37;;;;;;;7.43;4.10;;;;;;;12.12;49.45;101919.59;5057563;28;20030;-86
2022/05/03 07:37:02;;;;;;;7.05;4.30;;;;;;;12.18;48.37;101925.94;5043752;28;20026;-87
2022/05/03 07:39:28;;;;;;;7.18;4.30;;;;;;;12.23;49.19;101923.47;5041991;28;20111;-86
2022/05/03 07:41:53;;;;;;;10.00;4.38;;;;;;;12.29;48.83;101923.66;5042724;28;20091;-86
2022/05/03 07:44:19;;;;;;;5.90;4.03;;;;;;;12.33;46.41;101925.56;5043172;28;20029;-86
2022/05/03 07:46:44;;;;;;;6.13;4.10;;;;;;;12.36;47.52;101924.78;5043841;28;20070;-86
2022/05/03 07:49:10;;;;;;;6.80;4.30;;;;;;;12.43;48.53;101920.66;5058881;28;20029;-86
2022/05/03 07:51:35;;;;;;;8.07;4.35;;;;;;;12.47;47.74;101925.13;5035235;28;20052;-87
2022/05/03 07:54:01;;;;;;;7.25;4.70;;;;;;;12.51;48.25;101919.16;5040953;28;20276;-87
2022/05/03 07:56:26;;;;;;;8.73;4.90;;;;;;;12.57;46.71;101918.47;5044019;28;20021;-80
2022/05/03 07:58:51;;;;;;;9.68;5.10;;;;;;;12.61;46.95;101916.00;5042481;28;20052;-79
2022/05/03 08:01:17;;;;;;;8.07;5.32;;;;;;;12.67;48.59;101913.59;5043488;28;20091;-79
2022/05/03 08:03:42;;;;;;;8.57;5.68;;;;;;;12.75;48.99;101920.81;5057819;28;20017;-80
2022/05/03 08:06:07;;;;;;;9.55;5.30;;;;;;;12.79;47.75;101920.03;5043440;28;20064;-79
2022/05/03 08:08:33;;;;;;;7.75;4.90;;;;;;;12.83;49.08;101922.84;5044066;28;20044;-79
2022/05/03 08:10:58;;;;;;;11.93;5.20;;;;;;;12.90;47.74;101916.03;5042475;28;20025;-80
2022/05/03 08:13:23;;;;;;;10.85;5.07;;;;;;;12.96;49.24;101918.88;5042025;28;20044;-82
2022/05/03 08:15:49;;;;;;;8.27;5.10;;;;;;;13.02;47.47;101915.53;5035306;28;20022;-79
2022/05/03 08:18:14;;;;;;;7.90;4.88;;;;;;;13.06;46.53;101912.19;5039237;28;20181;-79
2022/05/03 08:20:39;;;;;;;7.22;4.65;;;;;;;13.14;48.48;101918.53;5031327;28;20018;-79
2022/05/03 08:23:05;;;;;;;11.10;5.60;;;;;;;13.25;49.55;101925.81;5036697;28;20052;-76
2022/05/03 08:25:32;;;;;;;10.73;5.53;;;;;;;13.29;46.58;101927.69;5041437;28;20037;-76
2022/05/03 08:27:58;;;;;;;10.05;5.50;;;;;;;13.37;49.15;101921.88;5038708;28;20021;-76
2022/05/03 08:30:23;;;;;;;10.43;5.65;;;;;;;13.44;48.07;101932.53;5041521;28;20043;-76
2022/05/03 08:32:49;;;;;;;10.20;5.60;;;;;;;13.53;48.10;101932.81;5039536;28;20068;-75
2022/05/03 08:35:15;;;;;;;9.30;5.85;;;;;;;13.57;47.84;101937.28;5042191;28;20013;-76
2022/05/03 08:43:08;;;;;;;12.63;6.93;;;;;;;13.83;47.90;101924.94;5042495;28;20027;-76
2022/05/03 08:45:34;;;;;;;11.60;6.40;;;;;;;13.90;50.74;101928.59;5057800;28;20351;-76
2022/05/03 08:48:01;;;;;;;12.55;6.55;;;;;;;13.93;50.46;101919.94;5041698;28;20071;-76
2022/05/03 08:50:27;;;;;;;11.32;6.70;;;;;;;13.97;50.21;101934.88;5033903;28;20029;-76
2022/05/03 08:52:59;;;;;;;10.93;6.93;;;;;;;14.03;49.45;101930.72;5039346;28;20083;-76
2022/05/03 08:55:25;;;;;;;12.30;7.22;;;;;;;14.13;49.18;101929.19;5031326;28;20071;-77
2022/05/03 08:57:51;;;;;;;12.77;7.72;;;;;;;14.20;51.12;101936.38;5042433;28;20025;-75
2022/05/03 09:00:17;;;;;;;12.30;7.07;;;;;;;14.28;50.10;101926.13;5041152;28;20347;-76
2022/05/03 09:02:51;;;;;;;11.77;7.85;;;;;;;14.36;49.79;101927.19;5039977;28;20048;-76
2022/05/03 09:05:18;;;;;;;11.93;7.38;;;;;;;14.46;50.95;101930.94;5034805;28;20052;-76
2022/05/03 09:08:08;;;;;;;11.73;7.95;;;;;;;14.51;50.10;101928.41;5040975;28;20029;-76
2022/05/03 09:10:34;;;;;;;13.52;7.95;;;;;;;14.58;47.96;101925.09;5041241;28;20033;-76
2022/05/03 09:13:22;;;;;;;12.82;7.93;;;;;;;14.62;49.26;101924.34;5041943;28;20095;-76
2022/05/03 09:16:13;;;;;;;12.82;7.38;;;;;;;14.71;50.06;101927.19;5041957;28;20032;-76
2022/05/03 09:18:39;;;;;;;11.27;7.78;;;;;;;14.77;50.33;101927.34;5042529;28;20103;-76
2022/05/03 09:24:12;;;;;;;10.85;7.05;;;;;;;14.89;49.20;101925.88;5037484;28;20370;-76
2022/05/03 09:26:39;;;;;;;12.30;7.78;;;;;;;14.99;51.03;101929.56;5040975;28;20325;-80
2022/05/03 09:29:09;;;;;;;15.05;8.05;;;;;;;15.00;48.11;101926.97;5042078;28;20009;-76
2022/05/03 09:31:42;;;;;;;11.10;7.10;;;;;;;15.04;47.68;101926.19;5042526;28;20033;-76
2022/05/03 09:34:19;;;;;;;12.18;7.20;;;;;;;15.10;50.12;101926.34;5041944;28;20029;-76
2022/05/03 09:36:59;;;;;;;12.90;7.43;;;;;;;15.21;50.02;101923.09;5041684;28;20033;-76
2022/05/03 09:39:29;;;;;;;11.48;6.90;;;;;;;15.27;49.78;101925.84;5041137;28;20079;-76
2022/05/03 09:42:09;;;;;;;12.20;7.55;;;;;;;15.28;50.44;101925.00;5041611;28;20191;-75
2022/05/03 09:44:40;;;;;;;12.10;7.93;;;;;;;15.27;48.18;101924.09;5041492;28;20036;-76
2022/05/03 09:47:10;;;;;;;14.00;8.32;;;;;;;15.35;51.84;101921.66;5042315;28;20031;-76
2022/05/03 09:49:37;;;;;;;13.32;8.93;;;;;;;15.43;49.50;101921.78;5040376;28;20052;-76
2022/05/03 09:52:09;;;;;;;13.48;8.80;;;;;;;15.48;50.27;101918.41;5056420;28;20286;-76
2022/05/03 09:54:48;;;;;;;14.40;9.60;;;;;;;15.60;49.88;101917.78;5033679;28;20033;-76
2022/05/03 09:57:19;;;;;;;;;;;;;;;15.66;51.08;101922.25;5033576;28;20034;-77
2022/05/03 09:59:47;;;;;;;15.70;8.85;;;;;;;15.71;49.58;101915.34;5042169;28;20055;-76
2022/05/03 10:02:15;;;;;;;14.65;9.10;;;;;;;15.80;50.96;101917.28;5035911;28;20018;-76
2022/05/03 10:04:40;;;;;;;14.52;8.65;;;;;;;15.88;51.52;101918.34;5041616;28;20034;-76
2022/05/03 10:07:05;;;;;;;15.65;8.98;;;;;;;15.94;51.52;101920.19;5041821;28;20028;-76
2022/05/03 10:09:32;;;;;;;15.88;10.35;;;;;;;16.05;53.01;101921.28;5060828;28;20033;-76
2022/05/03 10:12:00;;;;;;;16.77;9.95;;;;;;;16.11;52.11;101910.88;5055274;28;20210;-76
2022/05/03 10:14:27;;;;;;;16.27;10.75;;;;;;;16.15;49.00;101917.97;5044450;28;20021;-86
2022/05/03 10:22:24;;;;;;;15.45;9.02;;;;;;;16.29;50.75;101910.31;5044805;28;20156;-84
2022/05/03 10:24:54;;;;;;;14.70;9.13;;;;;;;16.21;48.58;101917.19;5029319;28;20026;-84
2022/05/03 10:27:23;;;;;;;15.68;9.25;;;;;;;16.22;49.53;101907.53;5043702;28;20066;-83
2022/05/03 10:30:16;;;;;;;15.57;9.48;;;;;;;16.29;51.61;101894.56;5045429;28;20045;-83
2022/05/03 10:32:42;;;;;;;18.45;9.98;;;;;;;16.37;51.84;101897.28;5060568;28;20268;-83
2022/05/03 10:35:36;;;;;;;14.50;9.15;;;;;;;16.49;53.22;101897.47;5046045;28;20032;-84
2022/05/03 10:38:04;;;;;;;15.98;9.43;;;;;;;16.52;48.97;101891.38;5034060;28;20029;-84
2022/05/03 10:40:38;;;;;;;15.30;9.40;;;;;;;16.56;50.70;101892.34;5044761;28;20285;-84
2022/05/03 10:43:11;;;;;;;17.20;9.55;;;;;;;16.59;50.47;101889.75;5042686;28;20161;-84
2022/05/03 10:45:52;;;;;;;15.40;8.48;;;;;;;16.55;50.13;101895.81;5038740;28;20021;-84
2022/05/03 10:48:33;;;;;;;13.93;7.90;;;;;;;16.58;48.35;101891.47;5036758;28;20068;-84
2022/05/03 10:51:03;;;;;;;14.85;8.40;;;;;;;16.58;48.71;101890.59;5044227;28;20021;-84
2022/05/03 10:53:37;;;;;;;14.23;8.52;;;;;;;16.51;48.63;101889.59;5039085;28;20037;-85
2022/05/03 10:56:08;;;;;;;19.50;10.38;;;;;;;16.51;47.41;101885.25;5033673;28;20017;-83
2022/05/03 10:58:39;;;;;;;18.30;10.48;;;;;;;16.56;51.65;101877.41;5037921;28;20029;-76
2022/05/03 11:01:13;;;;;;;16.55;10.00;;;;;;;16.72;51.58;101881.16;5036523;28;20268;-76
2022/05/03 11:03:48;;;;;;;19.52;9.57;;;;;;;16.88;50.23;101886.69;5044184;28;20338;-76
2022/05/03 11:06:17;;;;;;;17.42;10.07;;;;;;;16.96;48.81;101878.03;5039322;28;20018;-76
2022/05/03 11:08:57;;;;;;;14.35;9.10;;;;;;;16.96;48.68;101878.03;5044271;28;20256;-76
2022/05/03 11:11:50;;;;;;;16.75;9.40;;;;;;;16.93;49.49;101870.13;5038364;28;20072;-76
2022/05/03 11:14:24;;;;;;;17.73;9.55;;;;;;;16.90;49.22;101871.81;5033929;28;20325;-76
2022/05/03 11:17:02;;;;;;;16.45;8.95;;;;;;;16.88;49.40;101863.88;5043750;28;20045;-76
2022/05/03 11:19:29;;;;;;;18.40;10.25;;;;;;;16.93;50.89;101869.22;5059581;28;20078;-76
2022/05/03 11:21:55;;;;;;;21.63;11.35;;;;;;;16.99;49.28;101864.91;5042585;28;20113;-77
2022/05/03 11:24:24;;;;;;;18.55;10.43;;;;;;;17.09;48.29;101860.66;5043820;28;20175;-76
2022/05/03 11:26:51;;;;;;;;;;;;;;;17.13;49.37;101866.84;5045457;28;20154;-76
2022/05/03 11:29:17;;;;;;;17.35;9.27;;;;;;;16.99;47.63;101856.16;5043960;28;19927;-76
2022/05/03 11:31:47;;;;;;;19.10;10.05;;;;;;;16.89;46.58;101860.41;5044553;28;20026;-77
2022/05/03 11:34:12;;;;;;;19.83;10.73;;;;;;;16.91;47.50;101858.66;5043868;28;20049;-77
2022/05/03 11:36:40;;;;;;;17.98;11.13;;;;;;;16.99;48.45;101854.38;5044321;28;20192;-77
2022/05/03 11:39:05;;;;;;;18.35;10.70;;;;;;;17.00;47.98;101850.00;5042635;28;20053;-77
2022/05/03 11:41:30;;;;;;;18.92;9.98;;;;;;;17.16;48.72;101848.44;5042924;28;20018;-77
2022/05/03 11:43:56;;;;;;;16.20;9.07;;;;;;;17.28;49.01;101847.69;5042262;28;20280;-76
2022/05/03 11:46:22;;;;;;;19.60;9.75;;;;;;;17.33;49.12;101846.03;5044470;28;20033;-77
2022/05/03 11:49:02;;;;;;;18.35;11.15;;;;;;;17.34;49.77;101843.41;5043700;28;20036;-76
2022/05/03 11:57:08;;;;;;;21.75;10.68;;;;;;;17.28;47.38;101837.16;5042954;28;20032;-76
2022/05/03 11:59:33;;;;;;;20.80;11.23;;;;;;;17.23;47.54;101836.25;5043431;28;20033;-77
2022/05/03 12:02:13;;;;;;;19.88;10.50;;;;;;;17.20;49.02;101834.44;5043823;28;20064;-76
2022/05/03 12:04:39;;;;;;;20.00;10.85;;;;;;;17.21;51.13;101825.69;5043200;28;20045;-77
2022/05/03 12:07:05;;;;;;;23.13;12.23;;;;;;;17.16;49.42;101828.28;5043184;28;20035;-77
2022/05/03 12:09:36;;;;;;;21.65;11.88;;;;;;;17.20;50.82;101827.41;5042493;28;20034;-76